Time;durP1;ratioP1;P1;durP2;ratioP2;P2;SDS_P1;SDS_P2;PMS_P1;PMS_P2;Temp;Humidity;BMP_temperature;BMP_pressure;BME280_temperature;BME280_humidity;BME280_pressure;Samples;Min_cycle;Max_cycle;Signal;HPM_P1;HPM_P2
2022/02/07 00:00:07;;;;;;;11.38;5.89;;;;;;;;;;355798;150;857242;-57
2022/02/07 00:01:16;;;;;;;12.92;6.22;;;;;;;;;;353516;150;857290;-57
2022/02/07 00:02:12;;;;;;;9.67;5.65;;;;;;;;;;347792;153;857825;-57
2022/02/07 00:03:31;;;;;;;9.22;5.31;;;;;;;;;;350775;150;857718;-55
2022/02/07 00:04:25;;;;;;;12.20;5.83;;;;;;;;;;353664;150;857771;-56
2022/02/07 00:05:26;;;;;;;12.06;6.08;;;;;;;;;;355170;150;860292;-58
2022/02/07 00:06:27;;;;;;;8.95;5.03;;;;;;;;;;357338;150;860121;-56
2022/02/07 00:07:29;;;;;;;10.15;5.53;;;;;;;;;;355427;150;866516;-56
2022/02/07 00:08:33;;;;;;;10.52;5.80;;;;;;;;;;355759;150;864962;-56
2022/02/07 00:09:34;;;;;;;9.21;5.81;;;;;;;;;;356453;150;865928;-57
2022/02/07 00:10:37;;;;;;;10.57;5.43;;;;;;;;;;357008;150;865041;-56
2022/02/07 00:11:39;;;;;;;11.99;6.25;;;;;;;;;;355692;150;859003;-56
2022/02/07 00:12:46;;;;;;;10.15;5.43;;;;;;;;;;355644;150;857227;-56
2022/02/07 00:13:48;;;;;;;12.54;5.65;;;;;;;;;;356808;150;857129;-57
2022/02/07 00:14:49;;;;;;;13.26;6.62;;;;;;;;;;357382;150;857199;-56
2022/02/07 00:15:51;;;;;;;11.39;5.91;;;;;;;;;;355616;150;858377;-56
2022/02/07 00:16:53;;;;;;;6.84;4.60;;;;;;;;;;354700;150;858755;-56
2022/02/07 00:17:54;;;;;;;10.28;5.78;;;;;;;;;;356632;150;867143;-56
2022/02/07 00:18:56;;;;;;;8.84;4.90;;;;;;;;;;354299;150;859194;-56
2022/02/07 00:19:59;;;;;;;8.44;4.66;;;;;;;;;;356582;150;859515;-56
2022/02/07 00:21:01;;;;;;;9.44;5.83;;;;;;;;;;356365;150;857565;-56
2022/02/07 00:22:04;;;;;;;8.93;5.63;;;;;;;;;;357340;150;865171;-56
2022/02/07 00:23:08;;;;;;;7.64;5.12;;;;;;;;;;356605;150;859234;-57
2022/02/07 00:24:09;;;;;;;9.31;5.24;;;;;;;;;;353913;150;859194;-56
2022/02/07 00:25:11;;;;;;;8.71;5.08;;;;;;;;;;355870;150;859103;-56
2022/02/07 00:26:13;;;;;;;10.72;5.67;;;;;;;;;;356339;149;864922;-56
2022/02/07 00:27:15;;;;;;;8.42;4.33;;;;;;;;;;356090;150;857199;-56
2022/02/07 00:28:17;;;;;;;9.44;5.04;;;;;;;;;;356568;150;857231;-56
2022/02/07 00:29:18;;;;;;;10.56;5.27;;;;;;;;;;354690;149;865976;-56
2022/02/07 00:30:22;;;;;;;9.46;5.19;;;;;;;;;;355738;150;858999;-57
2022/02/07 00:31:23;;;;;;;7.87;4.59;;;;;;;;;;356530;150;857289;-57
2022/02/07 00:32:25;;;;;;;8.85;4.34;;;;;;;;;;357262;150;864877;-57
2022/02/07 00:33:26;;;;;;;9.06;4.38;;;;;;;;;;357710;149;857405;-57
2022/02/07 00:34:28;;;;;;;7.13;4.67;;;;;;;;;;355751;150;865628;-57
2022/02/07 00:35:29;;;;;;;7.30;4.45;;;;;;;;;;355830;149;858613;-57
2022/02/07 00:36:32;;;;;;;12.51;5.03;;;;;;;;;;349774;150;857426;-57
2022/02/07 00:37:34;;;;;;;8.24;4.91;;;;;;;;;;351138;153;866022;-57
2022/02/07 00:38:35;;;;;;;10.61;6.33;;;;;;;;;;349896;152;858784;-57
2022/02/07 00:39:47;;;;;;;8.26;4.65;;;;;;;;;;348011;153;857329;-57
2022/02/07 00:40:59;;;;;;;4.88;3.54;;;;;;;;;;350735;153;857357;-56
2022/02/07 00:41:57;;;;;;;7.39;4.08;;;;;;;;;;349485;152;858204;-56
2022/02/07 00:43:59;;;;;;;7.71;5.14;;;;;;;;;;348597;153;865864;-56
2022/02/07 00:45:12;;;;;;;9.94;4.33;;;;;;;;;;350426;151;857397;-56
2022/02/07 00:46:08;;;;;;;7.79;4.86;;;;;;;;;;349996;152;857356;-55
2022/02/07 00:47:09;;;;;;;7.92;3.98;;;;;;;;;;348378;153;865912;-56
2022/02/07 00:48:11;;;;;;;7.92;4.36;;;;;;;;;;349831;153;860104;-56
2022/02/07 00:49:13;;;;;;;8.80;5.00;;;;;;;;;;348394;153;859054;-55
2022/02/07 00:50:15;;;;;;;6.23;3.95;;;;;;;;;;351433;153;859269;-56
2022/02/07 00:51:16;;;;;;;6.14;3.94;;;;;;;;;;351328;152;859625;-55
2022/02/07 00:52:18;;;;;;;11.05;4.76;;;;;;;;;;349130;152;861362;-56
2022/02/07 00:53:20;;;;;;;7.17;4.46;;;;;;;;;;349271;152;860136;-55
2022/02/07 00:54:21;;;;;;;7.07;4.59;;;;;;;;;;350183;152;858950;-56
2022/02/07 00:55:22;;;;;;;8.63;5.16;;;;;;;;;;349848;153;857191;-56
2022/02/07 00:56:24;;;;;;;8.32;4.43;;;;;;;;;;351160;153;857295;-56
2022/02/07 00:57:26;;;;;;;8.99;4.35;;;;;;;;;;349623;153;857277;-56
2022/02/07 00:58:27;;;;;;;6.56;4.18;;;;;;;;;;351157;153;857239;-56
2022/02/07 00:59:49;;;;;;;6.60;3.68;;;;;;;;;;344221;156;865535;-57
2022/02/07 01:00:52;;;;;;;8.47;4.93;;;;;;;;;;332841;160;858553;-56
2022/02/07 01:01:53;;;;;;;7.66;4.71;;;;;;;;;;340441;155;859581;-55
2022/02/07 01:02:56;;;;;;;9.90;4.74;;;;;;;;;;338881;157;859486;-56
2022/02/07 01:03:57;;;;;;;10.31;5.04;;;;;;;;;;340405;157;858759;-56
2022/02/07 01:04:59;;;;;;;10.04;3.90;;;;;;;;;;339582;155;865156;-56
2022/02/07 01:06:00;;;;;;;8.23;4.26;;;;;;;;;;339246;157;857847;-56
2022/02/07 01:07:04;;;;;;;7.51;5.04;;;;;;;;;;337898;157;857593;-56
2022/02/07 01:08:06;;;;;;;7.32;3.82;;;;;;;;;;339999;157;865377;-56
2022/02/07 01:09:13;;;;;;;6.67;3.45;;;;;;;;;;337354;157;864882;-56
2022/02/07 01:10:14;;;;;;;9.03;3.35;;;;;;;;;;339693;157;857600;-56
2022/02/07 01:11:42;;;;;;;14.10;4.47;;;;;;;;;;335052;158;857506;-56
2022/02/07 01:13:03;;;;;;;7.14;4.17;;;;;;;;;;334167;156;857698;-56
2022/02/07 01:13:44;;;;;;;8.59;4.59;;;;;;;;;;330874;156;859313;-56
2022/02/07 01:14:53;;;;;;;9.73;4.67;;;;;;;;;;337861;158;857320;-56
2022/02/07 01:16:01;;;;;;;6.98;4.22;;;;;;;;;;332614;159;858451;-56
2022/02/07 01:23:13;;;;;;;10.69;4.59;;;;;;;;;;339678;155;864897;-56
2022/02/07 01:48:04;;;;;;;6.10;3.84;;;;;;;;;;339399;156;865310;-57
2022/02/07 01:49:07;;;;;;;7.31;3.48;;;;;;;;;;335889;157;857834;-57
2022/02/07 01:54:09;;;;;;;7.02;4.11;;;;;;;;;;337192;155;858418;-57
2022/02/07 01:55:07;;;;;;;6.56;4.00;;;;;;;;;;338448;158;856781;-57
2022/02/07 01:56:06;;;;;;;5.91;3.00;;;;;;;;;;337716;158;857913;-57
2022/02/07 01:57:09;;;;;;;6.49;3.87;;;;;;;;;;336296;158;857375;-57
2022/02/07 01:58:10;;;;;;;6.09;3.97;;;;;;;;;;335299;158;865933;-57
2022/02/07 01:59:12;;;;;;;5.81;3.19;;;;;;;;;;336431;156;866803;-57
2022/02/07 02:00:17;;;;;;;6.75;4.61;;;;;;;;;;337951;155;857443;-57
2022/02/07 02:01:18;;;;;;;8.09;4.22;;;;;;;;;;339723;158;865719;-57
2022/02/07 02:02:20;;;;;;;5.10;3.49;;;;;;;;;;337359;155;857741;-57
2022/02/07 02:03:22;;;;;;;7.45;4.08;;;;;;;;;;338145;155;864776;-57
2022/02/07 02:04:24;;;;;;;4.80;3.64;;;;;;;;;;337764;156;864805;-56
2022/02/07 02:05:25;;;;;;;7.65;4.37;;;;;;;;;;338580;155;857806;-57
2022/02/07 02:06:27;;;;;;;6.40;3.74;;;;;;;;;;334758;157;857270;-57
2022/02/07 02:07:29;;;;;;;8.65;3.66;;;;;;;;;;332109;158;857336;-58
2022/02/07 02:08:30;;;;;;;7.99;3.87;;;;;;;;;;338376;154;866039;-56
2022/02/07 02:09:32;;;;;;;5.71;3.41;;;;;;;;;;340269;157;865353;-56
2022/02/07 02:10:39;;;;;;;5.79;3.74;;;;;;;;;;339764;155;857735;-56
2022/02/07 02:11:42;;;;;;;7.91;4.11;;;;;;;;;;336508;155;866522;-56
2022/02/07 02:12:58;;;;;;;8.11;4.09;;;;;;;;;;336912;158;857270;-56
2022/02/07 02:14:15;;;;;;;4.89;2.73;;;;;;;;;;338749;154;857383;-57
2022/02/07 02:15:17;;;;;;;6.36;3.62;;;;;;;;;;339203;155;859876;-56
2022/02/07 02:16:13;;;;;;;6.92;3.93;;;;;;;;;;336757;157;858813;-57
2022/02/07 02:34:12;;;;;;;4.64;3.62;;;;;;;;;;329599;161;857844;-56
2022/02/07 02:37:20;;;;;;;5.88;3.72;;;;;;;;;;328393;161;864069;-56
2022/02/07 02:38:24;;;;;;;5.69;3.92;;;;;;;;;;330103;159;856652;-56
2022/02/07 02:45:37;;;;;;;7.04;4.20;;;;;;;;;;330527;159;856217;-57
2022/02/07 02:46:38;;;;;;;6.91;4.58;;;;;;;;;;335989;159;856781;-56
2022/02/07 02:47:39;;;;;;;7.39;4.02;;;;;;;;;;335473;157;856974;-56
2022/02/07 02:48:42;;;;;;;5.54;3.34;;;;;;;;;;333339;160;864432;-56
2022/02/07 02:49:48;;;;;;;7.27;3.44;;;;;;;;;;334498;159;863700;-56
2022/02/07 02:50:52;;;;;;;5.00;3.13;;;;;;;;;;333557;156;864480;-55
2022/02/07 02:51:53;;;;;;;5.74;3.67;;;;;;;;;;333393;160;857432;-56
2022/02/07 02:52:55;;;;;;;9.95;4.34;;;;;;;;;;336227;157;856882;-56
2022/02/07 02:55:49;;;;;;;6.35;3.94;;;;;;;2.00;63.15;98469.62;370312;142;881943;-56
2022/02/07 02:56:51;;;;;;;7.81;4.44;;;;;;;1.86;63.43;98459.35;354756;150;858967;-56
2022/02/07 02:58:13;;;;;;;4.31;3.49;;;;;;;1.86;63.56;98467.01;353331;148;857285;-56
2022/02/07 02:59:15;;;;;;;6.71;4.40;;;;;;;1.85;63.86;98461.91;340271;155;857575;-56
2022/02/07 03:00:18;;;;;;;5.31;3.26;;;;;;;1.75;64.50;98461.88;346593;152;857258;-57
2022/02/07 03:01:20;;;;;;;6.72;3.61;;;;;;;1.78;64.87;98452.53;347624;152;857159;-57
2022/02/07 03:02:22;;;;;;;9.53;4.81;;;;;;;;;;348039;152;857599;-57
2022/02/07 03:16:36;;;;;;;5.80;3.22;;;;;;;1.77;67.01;98428.70;370997;142;872153;-56
2022/02/07 03:17:28;;;;;;;5.69;3.74;;;;;;;1.67;66.92;98439.72;362198;147;857092;-56
2022/02/07 03:18:30;;;;;;;6.51;3.55;;;;;;;1.66;66.88;98432.92;363534;147;857353;-56
2022/02/07 03:19:32;;;;;;;6.12;3.78;;;;;;;1.67;66.95;98430.39;363884;145;857104;-56
2022/02/07 03:20:34;;;;;;;7.66;4.31;;;;;;;1.68;66.98;98431.22;361018;146;857487;-56
2022/02/07 03:21:38;;;;;;;6.62;4.62;;;;;;;1.66;67.02;98426.13;362918;147;857560;-57
2022/02/07 03:22:40;;;;;;;6.01;4.23;;;;;;;1.65;67.22;98421.01;362630;144;857157;-55
2022/02/07 03:23:41;;;;;;;7.95;4.87;;;;;;;1.65;67.20;98424.42;363564;146;866409;-55
2022/02/07 03:24:43;;;;;;;8.21;4.84;;;;;;;1.65;67.29;98421.01;363161;144;866409;-56
2022/02/07 03:25:45;;;;;;;6.73;4.84;;;;;;;1.64;67.32;98411.64;363755;146;865250;-56
2022/02/07 03:26:47;;;;;;;6.47;4.41;;;;;;;1.62;67.38;98415.89;365236;147;864775;-55
2022/02/07 03:27:48;;;;;;;6.29;4.31;;;;;;;;;;363987;146;858507;-56
2022/02/07 03:28:51;;;;;;;6.72;4.24;;;;;;;;;;362406;147;866740;-56
2022/02/07 03:29:52;;;;;;;8.63;4.83;;;;;;;;;;363371;147;859414;-56
2022/02/07 03:30:54;;;;;;;6.04;3.88;;;;;;;;;;361710;145;857245;-55
2022/02/07 03:31:56;;;;;;;6.25;3.50;;;;;;;;;;362845;147;865416;-54
2022/02/07 03:32:58;;;;;;;6.14;3.77;;;;;;;;;;357187;148;864826;-55
2022/02/07 03:33:59;;;;;;;6.53;4.62;;;;;;;;;;360434;146;863854;-55
2022/02/07 03:35:01;;;;;;;6.90;4.45;;;;;;;;;;363017;147;857683;-54
2022/02/07 03:36:02;;;;;;;7.53;4.21;;;;;;;;;;361216;147;860473;-54
2022/02/07 03:37:04;;;;;;;7.75;4.37;;;;;;;;;;362332;147;865951;-55
2022/02/07 03:38:06;;;;;;;9.39;5.38;;;;;;;;;;361692;147;857141;-55
2022/02/07 03:39:08;;;;;;;7.94;4.96;;;;;;;;;;363015;146;859014;-56
2022/02/07 03:40:12;;;;;;;11.66;5.09;;;;;;;;;;363456;146;866053;-56
2022/02/07 03:41:14;;;;;;;8.13;4.65;;;;;;;;;;363315;146;857289;-56
2022/02/07 03:42:15;;;;;;;8.26;4.98;;;;;;;;;;364703;144;865598;-56
2022/02/07 03:43:17;;;;;;;9.25;5.31;;;;;;;;;;360763;147;859793;-57
2022/02/07 03:44:18;;;;;;;8.29;4.92;;;;;;;;;;363647;147;857222;-56
2022/02/07 03:45:20;;;;;;;9.92;5.04;;;;;;;;;;361652;144;857242;-57
2022/02/07 03:46:22;;;;;;;6.45;4.43;;;;;;;;;;364773;145;856450;-57
2022/02/07 03:47:24;;;;;;;7.34;5.36;;;;;;;;;;362169;145;856962;-57
2022/02/07 03:48:25;;;;;;;7.74;4.66;;;;;;;;;;363643;145;858591;-56
2022/02/07 03:49:27;;;;;;;8.73;4.86;;;;;;;;;;361439;147;859410;-56
2022/02/07 03:50:29;;;;;;;6.86;4.63;;;;;;;;;;363331;146;857507;-57
2022/02/07 03:51:31;;;;;;;7.85;4.20;;;;;;;;;;363888;145;858840;-56
2022/02/07 03:52:32;;;;;;;9.06;5.17;;;;;;;;;;363518;147;866906;-56
2022/02/07 03:53:34;;;;;;;6.45;4.59;;;;;;;;;;362975;145;865664;-56
2022/02/07 03:54:36;;;;;;;7.71;4.86;;;;;;;;;;364123;147;864742;-56
2022/02/07 03:55:39;;;;;;;9.71;5.64;;;;;;;;;;362924;147;866651;-56
2022/02/07 03:56:41;;;;;;;7.54;5.10;;;;;;;;;;361798;146;865680;-55
2022/02/07 03:57:42;;;;;;;8.29;4.66;;;;;;;;;;362503;146;857902;-56
2022/02/07 03:58:44;;;;;;;6.36;4.06;;;;;;;;;;362703;144;865597;-57
2022/02/07 03:59:45;;;;;;;7.76;5.44;;;;;;;;;;365229;144;858210;-57
2022/02/07 04:00:51;;;;;;;8.11;4.94;;;;;;;;;;361076;146;857645;-55
2022/02/07 04:01:53;;;;;;;7.74;4.56;;;;;;;;;;360672;146;865358;-56
2022/02/07 04:02:57;;;;;;;8.98;5.18;;;;;;;;;;361338;147;858286;-56
2022/02/07 04:03:59;;;;;;;8.49;5.25;;;;;;;;;;361685;147;856875;-57
2022/02/07 04:05:22;;;;;;;7.55;4.94;;;;;;;;;;364106;146;859445;-56
2022/02/07 04:06:10;;;;;;;7.69;4.54;;;;;;;;;;364396;147;866928;-56
2022/02/07 04:07:09;;;;;;;9.92;5.51;;;;;;;;;;357573;147;863204;-56
2022/02/07 04:08:12;;;;;;;7.93;5.20;;;;;;;;;;362594;145;857219;-56
2022/02/07 04:09:18;;;;;;;9.91;5.92;;;;;;;;;;363300;146;857317;-57
2022/02/07 04:10:18;;;;;;;8.54;4.96;;;;;;;22.38;100.00;112913.89;361885;145;858123;-56
2022/02/07 04:11:29;;;;;;;7.51;4.66;;;;;;;;;;364695;147;859106;-56
2022/02/07 04:12:28;;;;;;;8.27;4.53;;;;;;;;;;356839;148;857547;-55
2022/02/07 04:13:32;;;;;;;8.20;4.75;;;;;;;;;;362376;147;857863;-55
2022/02/07 04:14:33;;;;;;;6.27;4.49;;;;;;;;;;360670;144;857209;-56
2022/02/07 04:15:35;;;;;;;6.09;4.52;;;;;;;;;;361420;144;859685;-56
2022/02/07 04:16:38;;;;;;;8.89;5.25;;;;;;;;;;363789;144;864859;-55
2022/02/07 04:17:44;;;;;;;6.62;4.39;;;;;;;;;;364523;147;859363;-56
2022/02/07 04:18:56;;;;;;;6.84;4.90;;;;;;;;;;362772;147;857206;-56
2022/02/07 04:32:04;;;;;;;6.28;4.67;;;;;;;1.82;63.99;98324.93;372549;142;869535;-57
2022/02/07 04:33:06;;;;;;;8.16;4.82;;;;;;;1.72;64.19;98341.08;363950;146;855994;-55
2022/02/07 04:34:08;;;;;;;7.93;4.40;;;;;;;1.72;64.22;98330.87;357458;147;856731;-56
2022/02/07 04:35:10;;;;;;;5.75;4.42;;;;;;;1.68;64.14;98327.48;358510;149;858923;-56
2022/02/07 04:36:12;;;;;;;6.05;4.29;;;;;;;1.70;64.17;98340.22;357998;147;866467;-56
2022/02/07 04:37:14;;;;;;;8.76;4.64;;;;;;;;;;357782;148;857210;-56
2022/02/07 04:38:15;;;;;;;8.23;4.69;;;;;;;;;;357617;148;865270;-56
2022/02/07 04:39:17;;;;;;;8.29;4.86;;;;;;;;;;357932;149;857384;-56
2022/02/07 04:40:18;;;;;;;8.49;5.11;;;;;;;;;;357631;147;862620;-55
2022/02/07 04:41:20;;;;;;;4.92;3.05;;;;;;;;;;359284;147;864681;-56
2022/02/07 04:42:24;;;;;;;6.04;4.26;;;;;;;;;;358114;148;858216;-56
2022/02/07 04:43:25;;;;;;;9.93;4.65;;;;;;;;;;356803;147;864864;-56
2022/02/07 04:44:35;;;;;;;7.07;5.15;;;;;;;;;;357747;147;865895;-59
2022/02/07 04:45:47;;;;;;;10.02;5.87;;;;;;;;;;354930;147;857168;-55
2022/02/07 05:00:04;;;;;;;12.73;4.41;;;;;;;1.29;68.81;98337.57;363680;147;857716;-55
2022/02/07 05:02:38;;;;;;;6.58;4.51;;;;;;;1.26;69.73;98335.01;335781;157;857745;-57
2022/02/07 05:03:31;;;;;;;6.01;4.83;;;;;;;1.19;70.81;98340.94;334868;157;857719;-55
2022/02/07 05:04:37;;;;;;;12.43;5.02;;;;;;;;;;334920;157;856350;-56
2022/02/07 05:14:41;;;;;;;7.69;4.79;;;;;;;;;;353973;149;856211;-57
2022/02/07 05:15:44;;;;;;;9.79;5.91;;;;;;;;;;355288;149;856350;-57
2022/02/07 05:16:48;;;;;;;6.84;4.59;;;;;;;;;;355060;149;856136;-56
2022/02/07 05:17:50;;;;;;;8.49;4.76;;;;;;;;;;354757;149;856411;-56
2022/02/07 05:18:55;;;;;;;8.81;5.18;;;;;;;;;;355733;149;856794;-56
2022/02/07 05:19:55;;;;;;;10.34;5.22;;;;;;;;;;353728;150;863998;-55
2022/02/07 05:20:57;;;;;;;8.41;4.74;;;;;;;;;;353196;149;857117;-55
2022/02/07 05:21:59;;;;;;;8.57;5.39;;;;;;;;;;355684;149;863871;-56
2022/02/07 05:23:00;;;;;;;7.63;5.31;;;;;;;;;;356722;149;856874;-56
2022/02/07 05:24:02;;;;;;;7.45;4.58;;;;;;;;;;356670;147;856421;-55
2022/02/07 05:25:04;;;;;;;7.25;5.29;;;;;;;;;;355934;147;856473;-56
2022/02/07 05:26:05;;;;;;;8.59;5.25;;;;;;;;;;354363;149;864245;-57
2022/02/07 05:27:07;;;;;;;9.16;5.40;;;;;;;;;;356924;149;856120;-56
2022/02/07 05:28:09;;;;;;;6.90;4.82;;;;;;;;;;356951;149;863765;-56
2022/02/07 05:29:10;;;;;;;9.04;5.59;;;;;;;;;;357969;150;863694;-56
2022/02/07 05:30:14;;;;;;;7.15;4.57;;;;;;;;;;355800;147;857999;-56
2022/02/07 05:31:18;;;;;;;7.69;4.83;;;;;;;;;;358010;147;856650;-56
2022/02/07 05:32:19;;;;;;;9.23;6.12;;;;;;;;;;355821;147;863660;-56
2022/02/07 05:33:20;;;;;;;9.17;5.13;;;;;;;;;;358515;147;856238;-55
2022/02/07 05:34:22;;;;;;;12.06;5.80;;;;;;;;;;355337;149;863837;-56
2022/02/07 05:35:23;;;;;;;9.51;5.88;;;;;;;;;;357135;147;856727;-56
2022/02/07 05:36:25;;;;;;;10.05;6.08;;;;;;;;;;356294;147;856486;-57
2022/02/07 05:37:28;;;;;;;9.36;5.21;;;;;;;;;;356630;149;856644;-56
2022/02/07 05:38:32;;;;;;;9.90;6.05;;;;;;;;;;354910;147;856140;-57
2022/02/07 05:39:35;;;;;;;7.81;5.19;;;;;;;;;;357556;147;855972;-56
2022/02/07 05:40:44;;;;;;;10.58;5.65;;;;;;;;;;357051;147;856650;-56
2022/02/07 05:41:40;;;;;;;6.89;5.28;;;;;;;;;;355949;149;856647;-57
2022/02/07 05:42:42;;;;;;;7.33;4.93;;;;;;;;;;353994;150;856126;-55
2022/02/07 05:43:48;;;;;;;8.71;5.19;;;;;;;;;;353567;147;863857;-54
2022/02/07 05:44:51;;;;;;;8.79;5.62;;;;;;;;;;354887;149;857740;-54
2022/02/07 05:45:53;;;;;;;7.92;5.03;;;;;;;;;;356896;147;856239;-56
2022/02/07 05:46:54;;;;;;;9.54;5.50;;;;;;;;;;353520;150;856257;-56
2022/02/07 05:47:56;;;;;;;8.79;5.40;;;;;;;;;;355181;149;859974;-55
2022/02/07 05:48:57;;;;;;;11.38;5.17;;;;;;;;;;353550;147;857195;-53
2022/02/07 05:49:59;;;;;;;8.09;5.16;;;;;;;;;;355032;147;857171;-55
2022/02/07 05:51:00;;;;;;;7.35;4.70;;;;;;;;;;353621;150;856876;-54
2022/02/07 05:52:02;;;;;;;9.05;5.05;;;;;;;;;;355298;150;856971;-55
2022/02/07 05:53:04;;;;;;;6.10;4.31;;;;;;;;;;355084;147;856510;-56
2022/02/07 05:54:05;;;;;;;8.56;4.81;;;;;;;;;;354587;149;863747;-56
2022/02/07 05:55:07;;;;;;;7.85;4.63;;;;;;;;;;353260;149;863643;-56
2022/02/07 05:56:09;;;;;;;8.23;4.63;;;;;;;;;;356040;147;856665;-55
2022/02/07 05:57:10;;;;;;;7.61;4.88;;;;;;;;;;354860;150;856114;-56
2022/02/07 05:58:12;;;;;;;10.95;6.03;;;;;;;;;;357068;150;863642;-55
2022/02/07 05:59:14;;;;;;;8.96;4.66;;;;;;;;;;356880;147;857676;-58
2022/02/07 06:00:16;;;;;;;12.79;5.01;;;;;;;;;;352803;151;856387;-56
2022/02/07 06:01:18;;;;;;;8.72;5.87;;;;;;;;;;352640;147;864771;-56
2022/02/07 06:02:19;;;;;;;7.92;5.71;;;;;;;;;;354939;149;863869;-56
2022/02/07 06:03:21;;;;;;;8.04;5.19;;;;;;;;;;354364;149;856802;-56
2022/02/07 06:04:23;;;;;;;6.84;3.94;;;;;;;;;;355660;147;856269;-57
2022/02/07 06:05:24;;;;;;;7.26;5.38;;;;;;;;;;357871;150;863651;-57
2022/02/07 06:06:27;;;;;;;9.53;5.18;;;;;;;;;;354944;149;856606;-57
2022/02/07 06:07:29;;;;;;;7.03;5.14;;;;;;;;;;355336;149;856190;-56
2022/02/07 06:08:32;;;;;;;8.85;5.46;;;;;;;;;;355371;147;858967;-59
2022/02/07 06:09:33;;;;;;;9.80;5.14;;;;;;;;;;354012;147;857423;-60
2022/02/07 06:10:35;;;;;;;7.23;4.64;;;;;;;;;;350619;150;856144;-60
2022/02/07 06:11:36;;;;;;;8.91;5.52;;;;;;;;;;355367;147;856209;-60
2022/02/07 06:12:39;;;;;;;11.22;5.84;;;;;;;;;;354881;147;863829;-58
2022/02/07 06:13:41;;;;;;;7.34;5.25;;;;;;;;;;356012;147;856806;-57
2022/02/07 06:14:43;;;;;;;7.24;3.93;;;;;;;;;;356026;150;860099;-58
2022/02/07 06:15:45;;;;;;;8.98;5.17;;;;;;;;;;355427;147;863667;-57
2022/02/07 06:16:46;;;;;;;8.84;5.73;;;;;;;;;;353831;150;857059;-57
2022/02/07 06:17:51;;;;;;;10.00;6.44;;;;;;;;;;355343;150;856835;-57
2022/02/07 06:18:52;;;;;;;9.50;5.41;;;;;;;;;;357083;150;856400;-58
2022/02/07 06:19:54;;;;;;;11.34;5.91;;;;;;;;;;356143;147;856257;-58
2022/02/07 06:21:01;;;;;;;10.41;5.59;;;;;;;;;;354561;147;856352;-57
2022/02/07 06:21:59;;;;;;;8.48;5.44;;;;;;;;;;354041;150;856773;-57
2022/02/07 06:23:01;;;;;;;7.52;5.11;;;;;;;;;;354171;150;856741;-56
2022/02/07 06:24:03;;;;;;;9.52;5.36;;;;;;;;;;353863;149;864376;-56
2022/02/07 06:25:04;;;;;;;8.39;5.39;;;;;;;;;;352666;150;856749;-58
2022/02/07 06:26:06;;;;;;;11.20;5.89;;;;;;;;;;353710;150;856604;-57
2022/02/07 06:27:08;;;;;;;9.92;5.12;;;;;;;;;;357753;147;856631;-57
2022/02/07 06:28:09;;;;;;;10.89;5.84;;;;;;;;;;356985;147;863716;-55
2022/02/07 06:29:11;;;;;;;8.65;5.25;;;;;;;;;;354820;150;856022;-55
2022/02/07 06:30:12;;;;;;;9.28;5.40;;;;;;;;;;355002;147;857071;-56
2022/02/07 06:31:14;;;;;;;9.87;5.44;;;;;;;;;;354455;150;864316;-54
2022/02/07 06:35:47;;;;;;;10.39;5.22;;;;;;;1.55;77.94;98292.56;370485;142;881350;-57
2022/02/07 06:36:49;;;;;;;7.29;4.77;;;;;;;1.39;78.54;98304.45;362958;147;856152;-56
2022/02/07 06:37:51;;;;;;;7.09;4.27;;;;;;;1.42;78.30;98302.73;363525;145;856800;-57
2022/02/07 06:38:53;;;;;;;7.14;4.06;;;;;;;1.41;78.29;98310.40;365384;145;864421;-56
2022/02/07 06:39:55;;;;;;;6.78;4.03;;;;;;;1.49;78.25;98303.62;365411;145;856184;-56
2022/02/07 06:40:56;;;;;;;7.43;3.81;;;;;;;1.47;78.14;98305.31;364716;146;863743;-57
2022/02/07 06:41:58;;;;;;;6.66;4.14;;;;;;;;;;362428;148;856566;-57
2022/02/07 06:43:00;;;;;;;10.28;3.78;;;;;;;;;;363055;147;864014;-56
2022/02/07 06:44:02;;;;;;;6.04;3.55;;;;;;;;;;362192;147;856182;-57
2022/02/07 06:45:04;;;;;;;7.21;4.27;;;;;;;;;;359999;147;856205;-57
2022/02/07 06:46:05;;;;;;;6.85;3.97;;;;;;;;;;362101;147;863976;-57
2022/02/07 06:47:07;;;;;;;6.11;3.83;;;;;;;;;;361628;147;857131;-56
2022/02/07 06:48:09;;;;;;;7.86;4.74;;;;;;;;;;360341;147;863682;-57
2022/02/07 06:49:10;;;;;;;6.59;4.19;;;;;;;;;;365286;144;864418;-56
2022/02/07 06:50:12;;;;;;;6.88;4.44;;;;;;;;;;364558;145;864233;-57
2022/02/07 06:51:14;;;;;;;6.59;4.49;;;;;;;;;;362261;144;863669;-57
2022/02/07 06:52:15;;;;;;;7.32;5.04;;;;;;;;;;362656;144;863603;-57
2022/02/07 06:53:17;;;;;;;7.55;4.96;;;;;;;;;;364681;145;863515;-57
2022/02/07 06:54:18;;;;;;;6.77;4.57;;;;;;;;;;363034;146;863879;-57
2022/02/07 06:55:20;;;;;;;6.51;3.76;;;;;;;;;;363124;146;861566;-57
2022/02/07 06:56:22;;;;;;;7.73;5.12;;;;;;;;;;362800;146;856387;-57
2022/02/07 06:57:23;;;;;;;7.98;4.93;;;;;;;;;;362849;148;863581;-58
2022/02/07 06:58:25;;;;;;;6.46;4.09;;;;;;;;;;365267;146;863962;-58
2022/02/07 06:59:29;;;;;;;7.83;5.58;;;;;;;;;;362714;146;857532;-57
2022/02/07 07:00:30;;;;;;;7.07;4.68;;;;;;;;;;362478;145;864160;-57
2022/02/07 07:01:32;;;;;;;8.69;5.44;;;;;;;;;;363196;146;856730;-57
2022/02/07 07:02:52;;;;;;;9.74;5.11;;;;;;;;;;362867;145;864373;-56
2022/02/07 07:03:54;;;;;;;;;;;;;;;;;;366665;144;863395;-55
2022/02/07 07:04:58;;;;;;;10.57;6.65;;;;;;;;;;362753;145;856369;-56
2022/02/07 07:05:59;;;;;;;28.79;13.29;;;;;;;;;;363421;145;863837;-56
2022/02/07 07:07:01;;;;;;;36.61;18.33;;;;;;;;;;362280;148;856262;-55
2022/02/07 07:08:02;;;;;;;30.57;14.06;;;;;;;;;;362708;144;863604;-56
2022/02/07 07:09:05;;;;;;;29.38;16.39;;;;;;;;;;364214;145;863885;-55
2022/02/07 07:10:08;;;;;;;25.61;13.19;;;;;;;;;;363967;145;864489;-54
2022/02/07 07:11:12;;;;;;;51.31;24.15;;;;;;;;;;362405;146;856050;-56
2022/02/07 07:12:13;;;;;;;97.54;41.28;;;;;;;;;;362580;146;856052;-56
2022/02/07 07:13:22;;;;;;;55.43;24.81;;;;;;;;;;363676;146;863728;-57
2022/02/07 07:14:30;;;;;;;26.01;13.84;;;;;;;;;;367097;146;856461;-57
2022/02/07 07:15:36;;;;;;;27.02;15.52;;;;;;;;;;363421;146;856060;-57
2022/02/07 07:17:34;;;;;;;14.68;7.29;;;;;;;;;;364823;146;856704;-57
2022/02/07 07:18:35;;;;;;;11.94;7.13;;;;;;;;;;363275;145;864350;-58
2022/02/07 07:19:37;;;;;;;10.87;6.45;;;;;;;;;;362865;148;856550;-57
2022/02/07 07:20:38;;;;;;;8.11;5.39;;;;;;;;;;364254;144;858973;-57
2022/02/07 07:21:41;;;;;;;9.53;5.42;;;;;;;;;;364636;144;856164;-58
2022/02/07 07:22:42;;;;;;;10.53;6.29;;;;;;;;;;368035;145;856031;-57
2022/02/07 07:36:04;;;;;;;11.40;5.31;;;;;;;1.74;78.24;98290.89;370308;142;871699;-56
2022/02/07 07:37:06;;;;;;;11.51;5.75;;;;;;;1.67;78.17;98289.19;361492;147;859405;-57
2022/02/07 07:38:07;;;;;;;8.99;5.25;;;;;;;1.58;77.96;98285.78;365861;146;857377;-58
2022/02/07 07:39:12;;;;;;;9.76;4.92;;;;;;;1.63;78.09;98290.91;363302;147;857864;-56
2022/02/07 07:40:14;;;;;;;8.96;4.66;;;;;;;1.69;78.06;98290.91;363886;147;863868;-56
2022/02/07 07:41:18;;;;;;;6.42;4.33;;;;;;;1.77;77.85;98287.52;364575;146;856307;-56
2022/02/07 07:42:20;;;;;;;10.34;4.55;;;;;;;1.87;77.50;98287.50;361020;146;856060;-57
2022/02/07 07:43:22;;;;;;;9.09;4.27;;;;;;;1.99;77.32;98286.67;363789;147;856761;-55
2022/02/07 07:44:29;;;;;;;6.37;3.85;;;;;;;2.09;76.94;98277.28;362919;146;856157;-55
2022/02/07 07:45:32;;;;;;;10.08;5.02;;;;;;;2.21;76.35;98275.60;363868;147;856407;-55
2022/02/07 07:46:31;;;;;;;9.79;5.01;;;;;;;2.26;75.79;98286.66;361099;147;863984;-56
2022/02/07 07:47:34;;;;;;;8.38;4.31;;;;;;;2.35;75.62;98281.54;364737;146;857237;-54
2022/02/07 07:48:36;;;;;;;9.15;5.10;;;;;;;2.28;75.68;98277.30;364899;147;856521;-58
2022/02/07 07:49:51;;;;;;;9.97;4.83;;;;;;;2.39;75.50;98274.70;363207;146;856076;-58
2022/02/07 07:50:54;;;;;;;9.38;4.75;;;;;;;2.45;75.18;98274.69;362605;147;857562;-56
2022/02/07 07:51:54;;;;;;;7.30;4.07;;;;;;;2.50;74.86;98270.42;361123;147;856889;-56
2022/02/07 08:02:43;;;;;;;5.21;2.85;;;;;;;3.13;72.65;98263.38;356855;150;856564;-59
2022/02/07 08:03:50;;;;;;;5.60;4.28;;;;;;;3.16;72.51;98264.23;355699;149;856289;-60
2022/02/07 08:04:49;;;;;;;6.53;4.42;;;;;;;3.12;72.09;98272.78;355993;149;864332;-57
2022/02/07 08:06:10;;;;;;;8.61;3.77;;;;;;;3.18;72.23;98264.20;356441;149;863803;-56
2022/02/07 08:07:06;;;;;;;8.66;4.33;;;;;;;;;;354560;149;856776;-56
2022/02/07 08:08:09;;;;;;;8.94;4.47;;;;;;;;;;352612;149;863829;-59
2022/02/07 08:11:17;;;;;;;6.86;4.65;;;;;;;;;;357772;148;856495;-58
2022/02/07 08:12:18;;;;;;;7.50;4.59;;;;;;;;;;357568;149;856561;-59
2022/02/07 08:13:20;;;;;;;7.90;4.42;;;;;;;;;;354807;149;863619;-58
2022/02/07 08:14:22;;;;;;;9.97;5.51;;;;;;;;;;354062;148;857929;-57